Azalea, Virginia
Current Conditions -  °F | °C
As of 12:54 AM on Friday 28 Nov 2014 (Local Time) from KOFP Reporting Station
Clear Clear  
Wind Chill: 27°   Ceiling: Unl
Heat Index: 32°   Visibility: 10mi
Dew Point: 24°   Wind: 5mph
Humidity: 73%   Direction: 280°W
Pressure: 30.21"   Gusts: NA
Location:  37.619°N, 77.441°W
Report Text: KOFP 280554Z AUTO 28004KT 10SM CLR 00/M04 A3021 RMK AO2 SLP232 T00001044 10039 21006 50003
Loading
Personal Weather Stations






























Interactive Weather Map New forecast layout! Learn more

10-Day Weather Forecast

Advertisements
Track Severe Weather on mobile